aviador You're here:

LFMN Decoded Metar

NICE in FRANCE
Report Time2018-05-28 05:00:00
UTC Time2018-05-28 05:19:00
Flight Rules vfr VFR
Wind110° at 23 kt
W.Decomp.*RWY 04: 8.2 kt HW 21.5 kt RCW
W.Rank110° ranks 8
Current wind is above 110° avg. (6.9)
Visibility9999 m
Phenomena:N/A
Clouds:N/A
Expected CloudBase > 1,200 ft AGL from Temp-Dew spread
CeilingNone
Temp21°C (ISA +6)
Dew Point18°C (83% RH)
AAT15.5°C
QNH1015 hPa
Density Alt948 ft
Elevation33 ft
Report Wrong Elevation
Raw Report
LFMN 280500Z 11023KT CAVOK 21/18 Q1015 NOSIG=

Extra information for LFMN:More info

Metar Taf Metar & Taf Last 4 Metars F.Rules Stats Wind Profile Meteogram Temp Stats Airport Information Weather charts Add Link Nearby VenuesMetar ALERT Operation Metar Decoded Social comments